sensor_id;sensor_type;location;lat;lon;timestamp;P1;durP1;ratioP1;P2;durP2;ratioP2
59950;SDS011;45812;53.540;9.774;2023-02-18T00:00:03;16.25;;;4.18;;
59950;SDS011;45812;53.540;9.774;2023-02-18T00:02:31;16.08;;;2.70;;
59950;SDS011;45812;53.540;9.774;2023-02-18T00:04:57;22.17;;;3.92;;
59950;SDS011;45812;53.540;9.774;2023-02-18T00:07:23;18.90;;;3.00;;
59950;SDS011;45812;53.540;9.774;2023-02-18T00:09:48;16.33;;;3.05;;
59950;SDS011;45812;53.540;9.774;2023-02-18T00:12:13;13.25;;;3.00;;
59950;SDS011;45812;53.540;9.774;2023-02-18T00:14:38;22.02;;;2.97;;
59950;SDS011;45812;53.540;9.774;2023-02-18T00:17:04;21.45;;;3.70;;
59950;SDS011;45812;53.540;9.774;2023-02-18T00:19:29;16.52;;;2.88;;
59950;SDS011;45812;53.540;9.774;2023-02-18T00:21:54;22.75;;;4.15;;
59950;SDS011;45812;53.540;9.774;2023-02-18T00:24:19;21.48;;;3.97;;
59950;SDS011;45812;53.540;9.774;2023-02-18T00:26:48;23.92;;;3.53;;
59950;SDS011;45812;53.540;9.774;2023-02-18T00:29:14;12.35;;;3.13;;
59950;SDS011;45812;53.540;9.774;2023-02-18T00:31:40;24.98;;;3.45;;
59950;SDS011;45812;53.540;9.774;2023-02-18T00:34:05;17.83;;;5.18;;
59950;SDS011;45812;53.540;9.774;2023-02-18T00:36:30;19.55;;;3.95;;
59950;SDS011;45812;53.540;9.774;2023-02-18T00:38:57;15.20;;;2.75;;
59950;SDS011;45812;53.540;9.774;2023-02-18T00:41:26;15.55;;;3.13;;
59950;SDS011;45812;53.540;9.774;2023-02-18T00:43:52;20.92;;;3.70;;
59950;SDS011;45812;53.540;9.774;2023-02-18T00:46:18;19.42;;;3.80;;
59950;SDS011;45812;53.540;9.774;2023-02-18T00:48:43;25.15;;;4.30;;
59950;SDS011;45812;53.540;9.774;2023-02-18T00:51:09;24.00;;;3.58;;
59950;SDS011;45812;53.540;9.774;2023-02-18T00:53:35;23.30;;;4.38;;
59950;SDS011;45812;53.540;9.774;2023-02-18T00:56:02;15.95;;;2.83;;
59950;SDS011;45812;53.540;9.774;2023-02-18T00:58:28;12.75;;;2.80;;
59950;SDS011;45812;53.540;9.774;2023-02-18T01:00:53;10.52;;;3.55;;
59950;SDS011;45812;53.540;9.774;2023-02-18T01:03:19;15.95;;;3.28;;
59950;SDS011;45812;53.540;9.774;2023-02-18T01:05:46;23.75;;;3.95;;
59950;SDS011;45812;53.540;9.774;2023-02-18T01:08:11;23.38;;;3.67;;
59950;SDS011;45812;53.540;9.774;2023-02-18T01:10:39;10.77;;;3.05;;
59950;SDS011;45812;53.540;9.774;2023-02-18T01:13:06;18.35;;;3.17;;
59950;SDS011;45812;53.540;9.774;2023-02-18T01:15:32;18.42;;;4.05;;
59950;SDS011;45812;53.540;9.774;2023-02-18T01:17:57;24.60;;;4.15;;
59950;SDS011;45812;53.540;9.774;2023-02-18T01:20:22;16.92;;;3.90;;
59950;SDS011;45812;53.540;9.774;2023-02-18T01:22:48;20.80;;;2.97;;
59950;SDS011;45812;53.540;9.774;2023-02-18T01:25:13;20.08;;;3.75;;
59950;SDS011;45812;53.540;9.774;2023-02-18T01:27:39;18.17;;;3.65;;
59950;SDS011;45812;53.540;9.774;2023-02-18T01:30:05;16.05;;;3.38;;
59950;SDS011;45812;53.540;9.774;2023-02-18T01:32:31;21.23;;;3.58;;
59950;SDS011;45812;53.540;9.774;2023-02-18T01:34:59;25.52;;;4.88;;
59950;SDS011;45812;53.540;9.774;2023-02-18T01:37:25;8.30;;;3.08;;
59950;SDS011;45812;53.540;9.774;2023-02-18T01:39:50;22.80;;;3.92;;
59950;SDS011;45812;53.540;9.774;2023-02-18T01:42:23;23.35;;;4.03;;
59950;SDS011;45812;53.540;9.774;2023-02-18T01:44:51;16.88;;;3.53;;
59950;SDS011;45812;53.540;9.774;2023-02-18T01:47:16;19.38;;;3.05;;
59950;SDS011;45812;53.540;9.774;2023-02-18T01:49:43;15.80;;;3.33;;
59950;SDS011;45812;53.540;9.774;2023-02-18T01:52:13;18.13;;;2.85;;
59950;SDS011;45812;53.540;9.774;2023-02-18T01:54:42;14.88;;;3.35;;
59950;SDS011;45812;53.540;9.774;2023-02-18T01:57:11;13.02;;;3.30;;
59950;SDS011;45812;53.540;9.774;2023-02-18T01:59:43;19.90;;;3.95;;
59950;SDS011;45812;53.540;9.774;2023-02-18T02:02:13;15.38;;;2.70;;
59950;SDS011;45812;53.540;9.774;2023-02-18T02:04:41;20.17;;;4.65;;
59950;SDS011;45812;53.540;9.774;2023-02-18T02:07:07;13.25;;;2.97;;
59950;SDS011;45812;53.540;9.774;2023-02-18T02:09:33;14.52;;;2.65;;
59950;SDS011;45812;53.540;9.774;2023-02-18T02:15:14;15.50;;;3.72;;
59950;SDS011;45812;53.540;9.774;2023-02-18T02:21:03;18.42;;;3.13;;
59950;SDS011;45812;53.540;9.774;2023-02-18T02:23:59;19.52;;;3.55;;
59950;SDS011;45812;53.540;9.774;2023-02-18T02:29:41;11.50;;;2.72;;
59950;SDS011;45812;53.540;9.774;2023-02-18T02:32:36;15.40;;;2.53;;
59950;SDS011;45812;53.540;9.774;2023-02-18T02:41:12;13.50;;;2.70;;
59950;SDS011;45812;53.540;9.774;2023-02-18T02:46:01;24.60;;;3.17;;
59950;SDS011;45812;53.540;9.774;2023-02-18T02:51:17;16.77;;;2.85;;
59950;SDS011;45812;53.540;9.774;2023-02-18T02:53:48;14.05;;;2.65;;
59950;SDS011;45812;53.540;9.774;2023-02-18T02:56:17;15.95;;;2.92;;
59950;SDS011;45812;53.540;9.774;2023-02-18T02:58:50;16.27;;;3.53;;
59950;SDS011;45812;53.540;9.774;2023-02-18T03:12:24;19.85;;;2.65;;
59950;SDS011;45812;53.540;9.774;2023-02-18T03:15:21;12.63;;;3.45;;
59950;SDS011;45812;53.540;9.774;2023-02-18T03:17:55;12.93;;;3.17;;
59950;SDS011;45812;53.540;9.774;2023-02-18T03:20:25;13.18;;;2.45;;
59950;SDS011;45812;53.540;9.774;2023-02-18T03:22:58;13.23;;;2.83;;
59950;SDS011;45812;53.540;9.774;2023-02-18T03:25:25;14.05;;;3.03;;
59950;SDS011;45812;53.540;9.774;2023-02-18T03:27:57;15.18;;;2.78;;
59950;SDS011;45812;53.540;9.774;2023-02-18T03:30:32;10.65;;;2.55;;
59950;SDS011;45812;53.540;9.774;2023-02-18T03:33:03;17.20;;;2.90;;
59950;SDS011;45812;53.540;9.774;2023-02-18T03:35:30;17.70;;;2.75;;
59950;SDS011;45812;53.540;9.774;2023-02-18T03:38:00;14.23;;;2.75;;
59950;SDS011;45812;53.540;9.774;2023-02-18T03:40:31;13.40;;;2.83;;
59950;SDS011;45812;53.540;9.774;2023-02-18T03:42:57;22.45;;;4.68;;
59950;SDS011;45812;53.540;9.774;2023-02-18T03:45:23;13.52;;;2.40;;
59950;SDS011;45812;53.540;9.774;2023-02-18T03:47:49;9.38;;;2.80;;
59950;SDS011;45812;53.540;9.774;2023-02-18T03:50:15;12.60;;;3.33;;
59950;SDS011;45812;53.540;9.774;2023-02-18T03:52:40;14.50;;;3.20;;
59950;SDS011;45812;53.540;9.774;2023-02-18T03:55:05;15.82;;;3.08;;
59950;SDS011;45812;53.540;9.774;2023-02-18T03:57:31;20.27;;;2.72;;
59950;SDS011;45812;53.540;9.774;2023-02-18T03:59:57;8.05;;;2.30;;
59950;SDS011;45812;53.540;9.774;2023-02-18T04:02:22;10.25;;;2.15;;
59950;SDS011;45812;53.540;9.774;2023-02-18T04:04:47;10.15;;;2.30;;
59950;SDS011;45812;53.540;9.774;2023-02-18T04:07:13;20.55;;;3.10;;
59950;SDS011;45812;53.540;9.774;2023-02-18T04:09:38;15.77;;;3.28;;
59950;SDS011;45812;53.540;9.774;2023-02-18T04:12:03;10.48;;;1.98;;
59950;SDS011;45812;53.540;9.774;2023-02-18T04:14:29;17.08;;;2.92;;
59950;SDS011;45812;53.540;9.774;2023-02-18T04:16:54;9.02;;;2.70;;
59950;SDS011;45812;53.540;9.774;2023-02-18T04:19:19;19.88;;;2.95;;
59950;SDS011;45812;53.540;9.774;2023-02-18T04:21:45;14.38;;;2.92;;
59950;SDS011;45812;53.540;9.774;2023-02-18T04:24:10;21.83;;;3.40;;
59950;SDS011;45812;53.540;9.774;2023-02-18T04:26:35;13.95;;;2.80;;
59950;SDS011;45812;53.540;9.774;2023-02-18T04:29:00;10.65;;;2.35;;
59950;SDS011;45812;53.540;9.774;2023-02-18T04:31:26;15.05;;;2.42;;
59950;SDS011;45812;53.540;9.774;2023-02-18T04:33:52;15.63;;;2.90;;
59950;SDS011;45812;53.540;9.774;2023-02-18T04:36:17;7.80;;;2.17;;
59950;SDS011;45812;53.540;9.774;2023-02-18T04:38:42;14.63;;;2.45;;
59950;SDS011;45812;53.540;9.774;2023-02-18T04:41:07;14.02;;;2.58;;
59950;SDS011;45812;53.540;9.774;2023-02-18T04:43:33;20.17;;;2.47;;
59950;SDS011;45812;53.540;9.774;2023-02-18T04:45:58;12.32;;;2.40;;
59950;SDS011;45812;53.540;9.774;2023-02-18T04:48:23;8.55;;;2.90;;
59950;SDS011;45812;53.540;9.774;2023-02-18T04:50:49;12.63;;;2.75;;
59950;SDS011;45812;53.540;9.774;2023-02-18T04:53:14;13.38;;;2.85;;
59950;SDS011;45812;53.540;9.774;2023-02-18T04:55:39;8.60;;;1.95;;
59950;SDS011;45812;53.540;9.774;2023-02-18T04:58:04;8.57;;;2.33;;
59950;SDS011;45812;53.540;9.774;2023-02-18T05:00:30;9.05;;;2.13;;
59950;SDS011;45812;53.540;9.774;2023-02-18T05:02:55;10.52;;;1.95;;
59950;SDS011;45812;53.540;9.774;2023-02-18T05:05:20;18.92;;;3.05;;
59950;SDS011;45812;53.540;9.774;2023-02-18T05:07:46;10.30;;;2.47;;
59950;SDS011;45812;53.540;9.774;2023-02-18T05:10:13;18.30;;;2.65;;
59950;SDS011;45812;53.540;9.774;2023-02-18T05:12:40;21.52;;;3.40;;
59950;SDS011;45812;53.540;9.774;2023-02-18T05:15:06;10.50;;;3.10;;
59950;SDS011;45812;53.540;9.774;2023-02-18T05:17:31;9.45;;;2.20;;
59950;SDS011;45812;53.540;9.774;2023-02-18T05:19:56;12.52;;;2.50;;
59950;SDS011;45812;53.540;9.774;2023-02-18T05:22:22;11.80;;;2.50;;
59950;SDS011;45812;53.540;9.774;2023-02-18T05:24:47;9.15;;;2.47;;
59950;SDS011;45812;53.540;9.774;2023-02-18T05:27:12;11.70;;;1.92;;
59950;SDS011;45812;53.540;9.774;2023-02-18T05:29:38;12.48;;;2.03;;
59950;SDS011;45812;53.540;9.774;2023-02-18T05:32:03;10.82;;;2.53;;
59950;SDS011;45812;53.540;9.774;2023-02-18T05:34:28;13.18;;;2.78;;
59950;SDS011;45812;53.540;9.774;2023-02-18T05:36:53;13.93;;;2.75;;
59950;SDS011;45812;53.540;9.774;2023-02-18T05:39:19;14.27;;;2.53;;
59950;SDS011;45812;53.540;9.774;2023-02-18T05:41:44;14.07;;;2.45;;
59950;SDS011;45812;53.540;9.774;2023-02-18T05:44:09;10.60;;;2.22;;
59950;SDS011;45812;53.540;9.774;2023-02-18T05:49:18;14.23;;;3.43;;
59950;SDS011;45812;53.540;9.774;2023-02-18T05:51:43;18.48;;;2.80;;
59950;SDS011;45812;53.540;9.774;2023-02-18T05:54:08;8.07;;;1.83;;
59950;SDS011;45812;53.540;9.774;2023-02-18T05:56:34;12.65;;;2.08;;
59950;SDS011;45812;53.540;9.774;2023-02-18T05:58:59;6.40;;;1.60;;
59950;SDS011;45812;53.540;9.774;2023-02-18T06:01:24;8.32;;;1.73;;
59950;SDS011;45812;53.540;9.774;2023-02-18T06:03:49;11.30;;;2.42;;
59950;SDS011;45812;53.540;9.774;2023-02-18T06:06:15;16.20;;;2.17;;
59950;SDS011;45812;53.540;9.774;2023-02-18T06:08:40;11.07;;;2.70;;
59950;SDS011;45812;53.540;9.774;2023-02-18T06:11:05;8.95;;;1.85;;
59950;SDS011;45812;53.540;9.774;2023-02-18T06:13:30;8.93;;;1.73;;
59950;SDS011;45812;53.540;9.774;2023-02-18T06:15:56;9.15;;;1.98;;
59950;SDS011;45812;53.540;9.774;2023-02-18T06:18:21;12.95;;;1.92;;
59950;SDS011;45812;53.540;9.774;2023-02-18T06:20:47;11.52;;;2.10;;
59950;SDS011;45812;53.540;9.774;2023-02-18T06:23:13;5.22;;;1.63;;
59950;SDS011;45812;53.540;9.774;2023-02-18T06:25:39;9.90;;;2.15;;
59950;SDS011;45812;53.540;9.774;2023-02-18T06:28:04;11.55;;;2.08;;
59950;SDS011;45812;53.540;9.774;2023-02-18T06:30:30;7.80;;;1.85;;
59950;SDS011;45812;53.540;9.774;2023-02-18T06:32:55;10.48;;;2.03;;
59950;SDS011;45812;53.540;9.774;2023-02-18T06:35:20;7.57;;;2.40;;
59950;SDS011;45812;53.540;9.774;2023-02-18T06:37:45;5.55;;;1.35;;
59950;SDS011;45812;53.540;9.774;2023-02-18T06:40:11;7.10;;;1.60;;
59950;SDS011;45812;53.540;9.774;2023-02-18T06:42:37;7.38;;;1.90;;
59950;SDS011;45812;53.540;9.774;2023-02-18T06:45:02;11.82;;;2.60;;
59950;SDS011;45812;53.540;9.774;2023-02-18T06:47:28;9.75;;;2.50;;
59950;SDS011;45812;53.540;9.774;2023-02-18T06:49:53;16.55;;;2.55;;
59950;SDS011;45812;53.540;9.774;2023-02-18T06:52:18;8.93;;;2.20;;
59950;SDS011;45812;53.540;9.774;2023-02-18T06:54:44;8.73;;;2.17;;
59950;SDS011;45812;53.540;9.774;2023-02-18T06:57:09;9.90;;;2.40;;
59950;SDS011;45812;53.540;9.774;2023-02-18T06:59:34;12.38;;;2.10;;
59950;SDS011;45812;53.540;9.774;2023-02-18T07:01:59;13.63;;;2.60;;
59950;SDS011;45812;53.540;9.774;2023-02-18T07:04:25;8.00;;;2.20;;
59950;SDS011;45812;53.540;9.774;2023-02-18T07:06:50;6.75;;;2.30;;
59950;SDS011;45812;53.540;9.774;2023-02-18T07:09:15;7.50;;;2.10;;
59950;SDS011;45812;53.540;9.774;2023-02-18T07:11:40;11.55;;;2.75;;
59950;SDS011;45812;53.540;9.774;2023-02-18T07:14:06;10.27;;;1.98;;
59950;SDS011;45812;53.540;9.774;2023-02-18T07:16:31;7.95;;;1.73;;
59950;SDS011;45812;53.540;9.774;2023-02-18T07:18:56;16.92;;;4.53;;
59950;SDS011;45812;53.540;9.774;2023-02-18T07:21:21;12.15;;;3.42;;
59950;SDS011;45812;53.540;9.774;2023-02-18T07:23:47;10.38;;;1.92;;
59950;SDS011;45812;53.540;9.774;2023-02-18T07:26:12;6.45;;;2.38;;
59950;SDS011;45812;53.540;9.774;2023-02-18T07:28:38;4.75;;;2.15;;
59950;SDS011;45812;53.540;9.774;2023-02-18T07:31:04;11.90;;;2.20;;
59950;SDS011;45812;53.540;9.774;2023-02-18T07:33:30;11.73;;;2.20;;
59950;SDS011;45812;53.540;9.774;2023-02-18T07:35:56;3.97;;;2.10;;
59950;SDS011;45812;53.540;9.774;2023-02-18T07:38:24;6.80;;;2.00;;
59950;SDS011;45812;53.540;9.774;2023-02-18T07:40:51;8.32;;;2.88;;
59950;SDS011;45812;53.540;9.774;2023-02-18T07:43:17;8.02;;;2.00;;
59950;SDS011;45812;53.540;9.774;2023-02-18T07:45:42;11.38;;;2.33;;
59950;SDS011;45812;53.540;9.774;2023-02-18T07:48:08;11.30;;;1.98;;
59950;SDS011;45812;53.540;9.774;2023-02-18T07:50:33;9.77;;;2.38;;
59950;SDS011;45812;53.540;9.774;2023-02-18T07:52:59;9.02;;;2.13;;
59950;SDS011;45812;53.540;9.774;2023-02-18T07:55:26;5.95;;;1.58;;
59950;SDS011;45812;53.540;9.774;2023-02-18T07:58:13;5.55;;;2.20;;
59950;SDS011;45812;53.540;9.774;2023-02-18T08:00:49;6.00;;;2.17;;
59950;SDS011;45812;53.540;9.774;2023-02-18T08:03:18;8.95;;;2.22;;
59950;SDS011;45812;53.540;9.774;2023-02-18T08:05:46;7.57;;;2.15;;
59950;SDS011;45812;53.540;9.774;2023-02-18T08:08:12;9.55;;;2.63;;
59950;SDS011;45812;53.540;9.774;2023-02-18T08:10:39;14.75;;;2.05;;
59950;SDS011;45812;53.540;9.774;2023-02-18T08:13:05;10.85;;;2.83;;
59950;SDS011;45812;53.540;9.774;2023-02-18T08:15:30;5.15;;;1.48;;
59950;SDS011;45812;53.540;9.774;2023-02-18T08:17:55;10.23;;;2.50;;
59950;SDS011;45812;53.540;9.774;2023-02-18T08:20:20;9.60;;;2.22;;
59950;SDS011;45812;53.540;9.774;2023-02-18T08:22:46;7.50;;;1.77;;
59950;SDS011;45812;53.540;9.774;2023-02-18T08:25:11;4.97;;;1.50;;
59950;SDS011;45812;53.540;9.774;2023-02-18T08:27:36;12.05;;;2.00;;
59950;SDS011;45812;53.540;9.774;2023-02-18T08:30:02;8.32;;;2.25;;
59950;SDS011;45812;53.540;9.774;2023-02-18T08:32:27;11.25;;;2.50;;
59950;SDS011;45812;53.540;9.774;2023-02-18T08:34:53;9.95;;;2.17;;
59950;SDS011;45812;53.540;9.774;2023-02-18T08:37:19;8.23;;;2.33;;
59950;SDS011;45812;53.540;9.774;2023-02-18T08:39:44;9.13;;;1.98;;
59950;SDS011;45812;53.540;9.774;2023-02-18T08:42:09;5.45;;;1.80;;
59950;SDS011;45812;53.540;9.774;2023-02-18T08:44:34;7.15;;;1.80;;
59950;SDS011;45812;53.540;9.774;2023-02-18T08:46:59;10.00;;;2.05;;
59950;SDS011;45812;53.540;9.774;2023-02-18T08:49:25;16.27;;;2.35;;
59950;SDS011;45812;53.540;9.774;2023-02-18T08:51:50;12.70;;;2.65;;
59950;SDS011;45812;53.540;9.774;2023-02-18T08:54:16;13.57;;;3.55;;
59950;SDS011;45812;53.540;9.774;2023-02-18T08:56:41;7.55;;;2.97;;
59950;SDS011;45812;53.540;9.774;2023-02-18T08:59:07;6.32;;;2.47;;
59950;SDS011;45812;53.540;9.774;2023-02-18T09:01:32;7.00;;;2.35;;
59950;SDS011;45812;53.540;9.774;2023-02-18T09:03:57;6.63;;;2.30;;
59950;SDS011;45812;53.540;9.774;2023-02-18T09:06:23;11.68;;;2.83;;
59950;SDS011;45812;53.540;9.774;2023-02-18T09:08:48;13.00;;;2.20;;
59950;SDS011;45812;53.540;9.774;2023-02-18T09:11:14;10.60;;;3.03;;
59950;SDS011;45812;53.540;9.774;2023-02-18T09:13:39;11.05;;;2.53;;
59950;SDS011;45812;53.540;9.774;2023-02-18T09:16:10;7.70;;;2.78;;
59950;SDS011;45812;53.540;9.774;2023-02-18T09:18:42;9.55;;;3.00;;
59950;SDS011;45812;53.540;9.774;2023-02-18T09:21:07;9.10;;;2.78;;
59950;SDS011;45812;53.540;9.774;2023-02-18T09:23:35;9.27;;;3.42;;
59950;SDS011;45812;53.540;9.774;2023-02-18T09:26:03;7.35;;;3.22;;
59950;SDS011;45812;53.540;9.774;2023-02-18T09:28:29;6.97;;;3.00;;
59950;SDS011;45812;53.540;9.774;2023-02-18T09:30:54;4.90;;;2.90;;
59950;SDS011;45812;53.540;9.774;2023-02-18T09:33:20;8.13;;;3.15;;
59950;SDS011;45812;53.540;9.774;2023-02-18T09:35:45;10.13;;;3.10;;
59950;SDS011;45812;53.540;9.774;2023-02-18T09:38:11;7.93;;;3.22;;
59950;SDS011;45812;53.540;9.774;2023-02-18T09:40:41;10.52;;;3.33;;
59950;SDS011;45812;53.540;9.774;2023-02-18T09:43:23;10.68;;;2.72;;
59950;SDS011;45812;53.540;9.774;2023-02-18T09:45:54;9.27;;;3.03;;
59950;SDS011;45812;53.540;9.774;2023-02-18T09:48:25;5.65;;;3.13;;
59950;SDS011;45812;53.540;9.774;2023-02-18T09:50:54;7.25;;;3.30;;
59950;SDS011;45812;53.540;9.774;2023-02-18T09:53:21;9.65;;;3.20;;
59950;SDS011;45812;53.540;9.774;2023-02-18T09:55:47;5.50;;;3.05;;
59950;SDS011;45812;53.540;9.774;2023-02-18T09:58:16;4.72;;;3.05;;
59950;SDS011;45812;53.540;9.774;2023-02-18T10:00:54;7.97;;;2.92;;
59950;SDS011;45812;53.540;9.774;2023-02-18T10:03:29;7.43;;;2.78;;
59950;SDS011;45812;53.540;9.774;2023-02-18T10:05:56;7.05;;;3.63;;
59950;SDS011;45812;53.540;9.774;2023-02-18T10:08:28;4.38;;;2.80;;
59950;SDS011;45812;53.540;9.774;2023-02-18T10:10:58;9.13;;;3.10;;
59950;SDS011;45812;53.540;9.774;2023-02-18T10:13:24;5.90;;;3.40;;
59950;SDS011;45812;53.540;9.774;2023-02-18T10:15:52;5.90;;;2.90;;
59950;SDS011;45812;53.540;9.774;2023-02-18T10:18:20;6.40;;;3.17;;
59950;SDS011;45812;53.540;9.774;2023-02-18T10:20:50;3.60;;;3.00;;
59950;SDS011;45812;53.540;9.774;2023-02-18T10:23:17;5.47;;;3.10;;
59950;SDS011;45812;53.540;9.774;2023-02-18T10:25:44;9.45;;;3.28;;
59950;SDS011;45812;53.540;9.774;2023-02-18T10:28:12;5.50;;;3.22;;
59950;SDS011;45812;53.540;9.774;2023-02-18T10:30:41;5.53;;;2.97;;
59950;SDS011;45812;53.540;9.774;2023-02-18T10:33:31;4.35;;;3.13;;
59950;SDS011;45812;53.540;9.774;2023-02-18T10:36:22;7.25;;;3.00;;
59950;SDS011;45812;53.540;9.774;2023-02-18T10:38:59;5.70;;;3.47;;
59950;SDS011;45812;53.540;9.774;2023-02-18T10:44:17;4.93;;;2.95;;
59950;SDS011;45812;53.540;9.774;2023-02-18T10:47:36;4.93;;;3.40;;
59950;SDS011;45812;53.540;9.774;2023-02-18T10:49:54;6.40;;;3.80;;
59950;SDS011;45812;53.540;9.774;2023-02-18T10:52:22;7.30;;;3.42;;
59950;SDS011;45812;53.540;9.774;2023-02-18T10:57:28;5.97;;;4.13;;
59950;SDS011;45812;53.540;9.774;2023-02-18T11:00:14;7.28;;;3.85;;
59950;SDS011;45812;53.540;9.774;2023-02-18T11:02:43;7.45;;;3.55;;
59950;SDS011;45812;53.540;9.774;2023-02-18T11:05:18;7.75;;;3.42;;
59950;SDS011;45812;53.540;9.774;2023-02-18T11:07:49;5.28;;;2.60;;
59950;SDS011;45812;53.540;9.774;2023-02-18T11:10:17;3.95;;;1.85;;
59950;SDS011;45812;53.540;9.774;2023-02-18T11:12:57;2.63;;;1.45;;
59950;SDS011;45812;53.540;9.774;2023-02-18T11:15:27;2.88;;;1.30;;
59950;SDS011;45812;53.540;9.774;2023-02-18T11:17:54;2.00;;;0.95;;
59950;SDS011;45812;53.540;9.774;2023-02-18T11:20:36;1.00;;;0.90;;
59950;SDS011;45812;53.540;9.774;2023-02-18T11:23:13;0.77;;;0.73;;
59950;SDS011;45812;53.540;9.774;2023-02-18T11:25:51;1.00;;;0.68;;
59950;SDS011;45812;53.540;9.774;2023-02-18T11:28:47;1.27;;;0.88;;
59950;SDS011;45812;53.540;9.774;2023-02-18T11:31:35;0.80;;;0.77;;
59950;SDS011;45812;53.540;9.774;2023-02-18T11:34:09;1.30;;;0.90;;
59950;SDS011;45812;53.540;9.774;2023-02-18T11:36:45;2.05;;;1.30;;
59950;SDS011;45812;53.540;9.774;2023-02-18T11:39:19;0.95;;;0.70;;
59950;SDS011;45812;53.540;9.774;2023-02-18T11:41:58;1.05;;;0.90;;
59950;SDS011;45812;53.540;9.774;2023-02-18T11:44:34;2.25;;;1.27;;
59950;SDS011;45812;53.540;9.774;2023-02-18T11:49:36;1.60;;;0.85;;
59950;SDS011;45812;53.540;9.774;2023-02-18T11:57:34;0.40;;;0.40;;
59950;SDS011;45812;53.540;9.774;2023-02-18T12:00:05;1.15;;;0.80;;
59950;SDS011;45812;53.540;9.774;2023-02-18T12:02:44;0.55;;;0.50;;
59950;SDS011;45812;53.540;9.774;2023-02-18T12:05:22;0.30;;;0.30;;
59950;SDS011;45812;53.540;9.774;2023-02-18T12:08:37;0.73;;;0.50;;
59950;SDS011;45812;53.540;9.774;2023-02-18T12:10:50;0.32;;;0.32;;
59950;SDS011;45812;53.540;9.774;2023-02-18T12:13:35;4.05;;;0.70;;
59950;SDS011;45812;53.540;9.774;2023-02-18T12:16:35;1.05;;;0.70;;
59950;SDS011;45812;53.540;9.774;2023-02-18T12:21:48;3.28;;;0.85;;
59950;SDS011;45812;53.540;9.774;2023-02-18T12:24:34;5.65;;;1.48;;
59950;SDS011;45812;53.540;9.774;2023-02-18T12:27:19;4.65;;;1.52;;
59950;SDS011;45812;53.540;9.774;2023-02-18T12:30:13;4.53;;;1.35;;
59950;SDS011;45812;53.540;9.774;2023-02-18T12:44:18;10.57;;;2.83;;
59950;SDS011;45812;53.540;9.774;2023-02-18T12:46:49;10.30;;;2.42;;
59950;SDS011;45812;53.540;9.774;2023-02-18T12:49:47;11.10;;;3.10;;
59950;SDS011;45812;53.540;9.774;2023-02-18T12:52:39;15.15;;;2.80;;
59950;SDS011;45812;53.540;9.774;2023-02-18T12:55:35;8.05;;;2.50;;
59950;SDS011;45812;53.540;9.774;2023-02-18T13:01:04;11.98;;;4.35;;
59950;SDS011;45812;53.540;9.774;2023-02-18T13:03:59;7.35;;;2.85;;
59950;SDS011;45812;53.540;9.774;2023-02-18T13:06:40;9.45;;;3.53;;
59950;SDS011;45812;53.540;9.774;2023-02-18T13:09:10;18.05;;;3.47;;
59950;SDS011;45812;53.540;9.774;2023-02-18T13:14:27;20.58;;;5.00;;
59950;SDS011;45812;53.540;9.774;2023-02-18T13:16:56;12.73;;;2.88;;
59950;SDS011;45812;53.540;9.774;2023-02-18T13:22:14;15.80;;;3.38;;
59950;SDS011;45812;53.540;9.774;2023-02-18T13:24:42;17.17;;;2.95;;
59950;SDS011;45812;53.540;9.774;2023-02-18T13:27:23;15.02;;;3.33;;
59950;SDS011;45812;53.540;9.774;2023-02-18T13:32:22;15.43;;;3.67;;
59950;SDS011;45812;53.540;9.774;2023-02-18T13:35:15;13.48;;;2.63;;
59950;SDS011;45812;53.540;9.774;2023-02-18T13:40:48;10.38;;;2.40;;
59950;SDS011;45812;53.540;9.774;2023-02-18T13:46:07;18.00;;;3.50;;
59950;SDS011;45812;53.540;9.774;2023-02-18T13:48:51;18.70;;;4.10;;
59950;SDS011;45812;53.540;9.774;2023-02-18T13:51:30;28.08;;;4.43;;
59950;SDS011;45812;53.540;9.774;2023-02-18T13:56:39;24.33;;;4.93;;
59950;SDS011;45812;53.540;9.774;2023-02-18T14:01:55;12.38;;;3.13;;
59950;SDS011;45812;53.540;9.774;2023-02-18T14:04:52;24.52;;;3.70;;
59950;SDS011;45812;53.540;9.774;2023-02-18T14:09:49;19.73;;;4.45;;
59950;SDS011;45812;53.540;9.774;2023-02-18T14:12:19;20.33;;;4.50;;
59950;SDS011;45812;53.540;9.774;2023-02-18T14:15:01;26.20;;;5.47;;
59950;SDS011;45812;53.540;9.774;2023-02-18T14:20:26;15.23;;;3.65;;
59950;SDS011;45812;53.540;9.774;2023-02-18T14:22:55;14.75;;;3.15;;
59950;SDS011;45812;53.540;9.774;2023-02-18T14:25:23;11.90;;;4.07;;
59950;SDS011;45812;53.540;9.774;2023-02-18T14:28:00;10.77;;;2.53;;
59950;SDS011;45812;53.540;9.774;2023-02-18T14:30:32;4.45;;;1.88;;
59950;SDS011;45812;53.540;9.774;2023-02-18T14:33:04;6.60;;;1.73;;
59950;SDS011;45812;53.540;9.774;2023-02-18T14:35:31;4.55;;;2.10;;
59950;SDS011;45812;53.540;9.774;2023-02-18T14:43:35;1.57;;;1.47;;
59950;SDS011;45812;53.540;9.774;2023-02-18T14:46:18;2.35;;;1.20;;
59950;SDS011;45812;53.540;9.774;2023-02-18T14:48:57;2.42;;;1.40;;
59950;SDS011;45812;53.540;9.774;2023-02-18T14:51:34;1.48;;;1.35;;
59950;SDS011;45812;53.540;9.774;2023-02-18T14:54:06;3.75;;;1.83;;
59950;SDS011;45812;53.540;9.774;2023-02-18T14:56:38;4.50;;;1.48;;
59950;SDS011;45812;53.540;9.774;2023-02-18T14:59:15;1.77;;;1.30;;
59950;SDS011;45812;53.540;9.774;2023-02-18T15:01:41;1.20;;;1.17;;
59950;SDS011;45812;53.540;9.774;2023-02-18T15:04:06;1.75;;;1.55;;
59950;SDS011;45812;53.540;9.774;2023-02-18T15:06:32;1.85;;;1.20;;
59950;SDS011;45812;53.540;9.774;2023-02-18T15:09:00;1.42;;;1.33;;
59950;SDS011;45812;53.540;9.774;2023-02-18T15:11:37;2.15;;;1.40;;
59950;SDS011;45812;53.540;9.774;2023-02-18T15:14:13;2.05;;;1.52;;
59950;SDS011;45812;53.540;9.774;2023-02-18T15:16:42;1.40;;;1.30;;
59950;SDS011;45812;53.540;9.774;2023-02-18T15:19:14;1.58;;;1.40;;
59950;SDS011;45812;53.540;9.774;2023-02-18T15:21:46;2.85;;;1.80;;
59950;SDS011;45812;53.540;9.774;2023-02-18T15:26:55;1.08;;;1.08;;
59950;SDS011;45812;53.540;9.774;2023-02-18T15:29:24;1.27;;;1.20;;
59950;SDS011;45812;53.540;9.774;2023-02-18T15:31:53;1.50;;;1.35;;
59950;SDS011;45812;53.540;9.774;2023-02-18T15:36:52;1.88;;;1.52;;
59950;SDS011;45812;53.540;9.774;2023-02-18T15:39:18;1.52;;;1.42;;
59950;SDS011;45812;53.540;9.774;2023-02-18T15:41:43;2.92;;;2.05;;
59950;SDS011;45812;53.540;9.774;2023-02-18T15:44:15;1.60;;;1.48;;
59950;SDS011;45812;53.540;9.774;2023-02-18T15:46:47;3.05;;;2.00;;
59950;SDS011;45812;53.540;9.774;2023-02-18T15:49:13;3.22;;;1.85;;
59950;SDS011;45812;53.540;9.774;2023-02-18T15:51:41;3.65;;;1.77;;
59950;SDS011;45812;53.540;9.774;2023-02-18T15:54:12;4.20;;;1.75;;
59950;SDS011;45812;53.540;9.774;2023-02-18T15:56:41;3.75;;;1.77;;
59950;SDS011;45812;53.540;9.774;2023-02-18T15:59:16;1.98;;;1.88;;
59950;SDS011;45812;53.540;9.774;2023-02-18T16:02:18;2.30;;;2.10;;
59950;SDS011;45812;53.540;9.774;2023-02-18T16:04:50;1.90;;;1.80;;
59950;SDS011;45812;53.540;9.774;2023-02-18T16:07:26;3.45;;;2.00;;
59950;SDS011;45812;53.540;9.774;2023-02-18T16:12:43;1.50;;;1.40;;
59950;SDS011;45812;53.540;9.774;2023-02-18T16:15:15;1.48;;;1.17;;
59950;SDS011;45812;53.540;9.774;2023-02-18T16:17:45;1.35;;;1.13;;
59950;SDS011;45812;53.540;9.774;2023-02-18T16:20:16;2.17;;;1.10;;
59950;SDS011;45812;53.540;9.774;2023-02-18T16:22:45;1.00;;;1.00;;
59950;SDS011;45812;53.540;9.774;2023-02-18T16:25:17;1.30;;;1.20;;
59950;SDS011;45812;53.540;9.774;2023-02-18T16:30:18;1.20;;;1.10;;
59950;SDS011;45812;53.540;9.774;2023-02-18T16:32:45;1.08;;;1.05;;
59950;SDS011;45812;53.540;9.774;2023-02-18T16:35:11;1.30;;;0.82;;
59950;SDS011;45812;53.540;9.774;2023-02-18T16:37:37;0.98;;;0.95;;
59950;SDS011;45812;53.540;9.774;2023-02-18T16:40:03;3.05;;;1.35;;